Time;durP1;ratioP1;P1;durP2;ratioP2;P2;SDS_P1;SDS_P2;PMS_P1;PMS_P2;Temp;Humidity;BMP_temperature;BMP_pressure;BME280_temperature;BME280_humidity;BME280_pressure;Samples;Min_cycle;Max_cycle;Signal;HPM_P1;HPM_P2
2022/12/14 00:00:47;;;;;;;25.70;11.55;;;-3.20;89.40;;;;;;5014460;28;20565;-76
2022/12/14 00:03:14;;;;;;;29.52;11.70;;;-3.20;89.30;;;;;;5008273;28;20084;-76
2022/12/14 00:05:41;;;;;;;21.10;9.25;;;-3.20;89.20;;;;;;5012332;28;20038;-75
2022/12/14 00:08:07;;;;;;;20.77;9.55;;;-3.20;89.70;;;;;;5015187;28;20048;-76
2022/12/14 00:10:35;;;;;;;21.40;10.63;;;-3.30;89.80;;;;;;5009326;28;20025;-75
2022/12/14 00:13:01;;;;;;;22.92;10.43;;;-3.30;89.90;;;;;;5003601;28;20040;-74
2022/12/14 00:15:27;;;;;;;27.38;9.63;;;-3.30;90.10;;;;;;5016509;28;20038;-74
2022/12/14 00:17:53;;;;;;;22.75;10.18;;;-3.40;90.20;;;;;;5008991;28;20026;-74
2022/12/14 00:20:19;;;;;;;20.38;9.60;;;-3.30;90.30;;;;;;5016297;28;20047;-73
2022/12/14 00:22:45;;;;;;;21.95;10.13;;;-3.30;90.20;;;;;;5009036;28;20033;-73
2022/12/14 00:25:11;;;;;;;20.75;9.65;;;-3.30;90.20;;;;;;5009053;28;21029;-73
2022/12/14 00:27:42;;;;;;;19.23;8.13;;;-3.30;90.40;;;;;;5012933;28;20041;-73
2022/12/14 00:30:10;;;;;;;20.63;9.63;;;-3.30;90.30;;;;;;5018594;28;20102;-78
2022/12/14 00:32:36;;;;;;;21.20;8.80;;;-3.30;90.50;;;;;;5019279;28;20067;-75
2022/12/14 00:35:01;;;;;;;21.48;9.98;;;-3.30;90.50;;;;;;5015985;28;20034;-78
2022/12/14 00:37:27;;;;;;;24.52;9.85;;;-3.30;90.60;;;;;;5017174;28;20098;-74
2022/12/14 00:39:53;;;;;;;20.75;8.90;;;-3.30;90.50;;;;;;5008800;28;20580;-75
2022/12/14 00:42:19;;;;;;;19.88;8.85;;;-3.30;90.50;;;;;;5007804;28;20431;-75
2022/12/14 00:44:44;;;;;;;19.45;9.00;;;-3.30;90.50;;;;;;5008051;28;20446;-75
2022/12/14 00:47:10;;;;;;;22.30;9.70;;;-3.20;90.50;;;;;;5010151;28;20426;-75
2022/12/14 00:49:36;;;;;;;19.33;9.48;;;-3.30;90.30;;;;;;5004797;28;20026;-73
2022/12/14 00:52:02;;;;;;;20.60;9.48;;;-3.20;90.20;;;;;;5008120;28;20087;-74
2022/12/14 00:54:28;;;;;;;19.52;9.73;;;-3.20;90.30;;;;;;5013432;28;20079;-74
2022/12/14 00:56:53;;;;;;;21.80;8.90;;;-3.20;90.20;;;;;;5012968;28;20036;-73
2022/12/14 00:59:19;;;;;;;19.75;8.52;;;-3.20;90.20;;;;;;5009719;28;20032;-73
2022/12/14 01:01:45;;;;;;;19.23;8.30;;;-3.30;90.20;;;;;;5004490;28;20128;-73
2022/12/14 01:04:17;;;;;;;22.88;9.23;;;-3.30;90.20;;;;;;5005991;28;20034;-73
2022/12/14 01:06:47;;;;;;;18.60;8.82;;;-3.30;90.10;;;;;;5011216;28;20025;-73
2022/12/14 01:09:14;;;;;;;24.60;8.57;;;-3.30;90.20;;;;;;5031082;28;20034;-74
2022/12/14 01:11:40;;;;;;;23.20;9.55;;;-3.30;90.20;;;;;;5011425;28;20068;-72
2022/12/14 01:14:07;;;;;;;19.85;8.85;;;-3.30;89.60;;;;;;5012594;28;20026;-72
2022/12/14 01:16:33;;;;;;;25.63;9.50;;;-3.40;89.80;;;;;;5014012;28;20044;-72
2022/12/14 01:19:00;;;;;;;20.08;9.45;;;-3.40;90.10;;;;;;5006568;28;20068;-71
2022/12/14 01:21:27;;;;;;;21.73;9.07;;;-3.40;90.20;;;;;;5008347;28;20068;-73
2022/12/14 01:23:55;;;;;;;22.85;9.50;;;-3.40;90.20;;;;;;5007326;28;20037;-73
2022/12/14 01:26:22;;;;;;;19.92;8.68;;;-3.40;90.20;;;;;;5007299;28;20785;-73
2022/12/14 01:28:51;;;;;;;22.70;9.50;;;-3.40;90.50;;;;;;4999731;28;20060;-73
2022/12/14 01:31:19;;;;;;;21.05;9.10;;;-3.40;90.10;;;;;;5009990;28;20516;-73
2022/12/14 01:33:46;;;;;;;23.88;10.75;;;-3.40;90.10;;;;;;5013649;28;20037;-73
2022/12/14 01:36:18;;;;;;;19.48;9.80;;;-3.40;90.10;;;;;;5010781;28;20053;-73
2022/12/14 01:38:44;;;;;;;20.42;8.13;;;-3.40;90.20;;;;;;5005269;28;20040;-73
2022/12/14 01:41:29;;;;;;;19.02;9.35;;;-3.40;90.20;;;;;;5006953;28;20397;-73
2022/12/14 01:44:09;;;;;;;25.00;10.32;;;-3.50;90.00;;;;;;5010287;28;20100;-73
2022/12/14 01:46:43;;;;;;;19.20;10.02;;;-3.50;90.10;;;;;;5003808;28;20026;-73
2022/12/14 01:49:32;;;;;;;21.10;8.75;;;-3.50;90.10;;;;;;5007229;28;20025;-73
2022/12/14 01:52:01;;;;;;;23.65;9.85;;;-3.50;90.10;;;;;;5013113;28;20042;-73
2022/12/14 01:54:30;;;;;;;19.88;9.35;;;-3.50;90.10;;;;;;5014300;28;20037;-73
2022/12/14 01:56:56;;;;;;;19.55;10.35;;;-3.50;90.20;;;;;;5009599;28;20026;-73
2022/12/14 01:59:32;;;;;;;26.80;9.82;;;-3.50;90.20;;;;;;5007184;28;20140;-73
2022/12/14 02:02:00;;;;;;;;;;;-3.50;90.20;;;;;;5011869;28;20137;-73
2022/12/14 02:04:26;;;;;;;19.75;8.75;;;-3.60;90.10;;;;;;5004856;28;19913;-72
2022/12/14 02:06:53;;;;;;;22.95;10.07;;;-3.60;90.00;;;;;;5003299;28;20029;-73
2022/12/14 02:09:25;;;;;;;24.48;10.75;;;-3.50;89.40;;;;;;5014067;28;20370;-73
2022/12/14 02:12:08;;;;;;;23.10;9.13;;;-3.50;89.60;;;;;;5012749;28;20040;-73
2022/12/14 02:14:34;;;;;;;22.48;10.00;;;-3.50;89.70;;;;;;5009421;28;20038;-74
2022/12/14 02:17:00;;;;;;;20.88;9.68;;;-3.60;89.90;;;;;;5008509;28;20044;-73
2022/12/14 02:19:26;;;;;;;26.35;10.93;;;-3.60;89.70;;;;;;5013662;28;20029;-73
2022/12/14 02:22:19;;;;;;;25.05;10.65;;;-3.60;89.70;;;;;;5014971;28;20425;-73
2022/12/14 02:24:54;;;;;;;21.17;9.18;;;-3.60;89.90;;;;;;5041365;28;20030;-73
2022/12/14 02:27:58;;;;;;;21.92;10.43;;;-3.60;90.10;;;;;;5015853;28;20077;-73
2022/12/14 02:30:26;;;;;;;20.67;9.80;;;-3.60;89.90;;;;;;4962561;28;20059;-73
2022/12/14 02:32:51;;;;;;;20.73;9.63;;;-3.60;89.50;;;;;;5016213;28;20075;-73
2022/12/14 02:35:33;;;;;;;20.02;9.95;;;-3.60;89.40;;;;;;5010121;28;20956;-74
2022/12/14 02:38:27;;;;;;;23.50;9.77;;;-3.70;89.50;;;;;;5009735;28;20029;-74
2022/12/14 02:41:21;;;;;;;23.05;9.63;;;-3.70;89.60;;;;;;5012650;28;20490;-74
2022/12/14 02:44:14;;;;;;;20.52;9.73;;;-3.70;89.80;;;;;;5005034;28;20042;-74
2022/12/14 02:47:02;;;;;;;19.30;9.27;;;-3.70;89.10;;;;;;5014003;28;20057;-73
2022/12/14 02:49:51;;;;;;;20.85;9.82;;;-3.70;88.40;;;;;;5016755;28;20534;-73
2022/12/14 02:52:48;;;;;;;22.50;9.73;;;-3.80;88.80;;;;;;5015161;28;20065;-73
2022/12/14 02:55:22;;;;;;;17.00;9.27;;;-3.80;89.30;;;;;;5013720;28;20041;-73
2022/12/14 02:57:52;;;;;;;23.88;10.48;;;-3.80;89.10;;;;;;5012113;28;20033;-73
2022/12/14 03:00:18;;;;;;;25.60;10.48;;;-3.80;89.30;;;;;;5013953;28;20554;-73
2022/12/14 03:02:46;;;;;;;29.17;10.88;;;-3.80;89.20;;;;;;5005757;28;20107;-73
2022/12/14 03:05:12;;;;;;;23.25;10.95;;;-3.80;89.30;;;;;;5015788;28;20167;-73
2022/12/14 03:07:53;;;;;;;24.30;11.02;;;-3.80;89.60;;;;;;5016137;28;20965;-73
2022/12/14 03:10:41;;;;;;;20.95;10.52;;;-3.80;89.60;;;;;;5017436;28;20036;-74
2022/12/14 03:13:41;;;;;;;24.85;10.63;;;-3.90;89.50;;;;;;5007775;28;20801;-73
2022/12/14 03:16:13;;;;;;;26.92;10.65;;;-3.90;89.40;;;;;;5007975;28;20796;-73
2022/12/14 03:19:05;;;;;;;25.10;10.40;;;-3.90;89.50;;;;;;5012509;28;20636;-73
2022/12/14 03:21:35;;;;;;;22.88;10.15;;;-3.90;89.70;;;;;;5002650;28;20038;-73
2022/12/14 03:24:07;;;;;;;25.20;11.25;;;-3.90;89.60;;;;;;5013902;28;20030;-73
2022/12/14 03:26:55;;;;;;;23.30;11.38;;;-3.90;88.60;;;;;;5014734;28;20616;-73
2022/12/14 03:29:30;;;;;;;24.27;11.55;;;-3.90;88.60;;;;;;5014216;28;20516;-73
2022/12/14 03:32:01;;;;;;;20.77;10.02;;;-3.90;88.40;;;;;;5008306;28;20038;-73
2022/12/14 03:34:45;;;;;;;24.85;9.85;;;-3.90;88.60;;;;;;5009756;28;20955;-73
2022/12/14 03:37:38;;;;;;;23.27;11.05;;;-3.90;88.60;;;;;;5013939;28;20029;-74
2022/12/14 03:40:09;;;;;;;24.95;10.07;;;-3.80;87.30;;;;;;4998855;28;20569;-74
2022/12/14 03:43:01;;;;;;;24.50;10.63;;;-3.90;87.40;;;;;;5020695;28;20422;-73
2022/12/14 03:45:45;;;;;;;20.42;9.52;;;-3.90;87.10;;;;;;5031149;28;20034;-73
2022/12/14 03:48:30;;;;;;;23.38;10.15;;;-4.00;87.30;;;;;;5012239;28;20037;-73
2022/12/14 03:51:17;;;;;;;21.00;10.20;;;-4.00;88.00;;;;;;5012468;28;20095;-73
2022/12/14 03:53:59;;;;;;;;;;;-4.00;87.50;;;;;;5013162;28;20041;-73
2022/12/14 03:56:47;;;;;;;20.75;8.77;;;-4.00;87.40;;;;;;5013568;28;19924;-73
2022/12/14 03:59:32;;;;;;;24.02;10.77;;;-4.10;88.00;;;;;;5011398;28;20029;-73
2022/12/14 04:02:14;;;;;;;27.65;10.80;;;-4.10;88.60;;;;;;5015355;28;20040;-73
2022/12/14 04:04:55;;;;;;;23.10;10.63;;;-4.10;88.80;;;;;;5013912;28;20067;-73
2022/12/14 04:07:53;;;;;;;27.55;10.93;;;-4.10;88.70;;;;;;5014858;28;20104;-74
2022/12/14 04:19:01;;;;;;;22.98;10.23;;;-4.20;87.60;;;;;;5007063;28;20087;-73
2022/12/14 04:21:45;;;;;;;24.25;10.23;;;-4.10;88.50;;;;;;5014048;28;20040;-73
2022/12/14 04:27:21;;;;;;;21.95;9.55;;;-4.20;88.70;;;;;;5015862;28;20041;-73
2022/12/14 04:29:55;;;;;;;24.77;10.85;;;-4.20;89.20;;;;;;5008084;28;20069;-74
2022/12/14 04:32:53;;;;;;;24.17;10.40;;;-4.20;89.40;;;;;;5012859;28;20037;-73
2022/12/14 04:35:34;;;;;;;22.85;9.98;;;-4.10;89.00;;;;;;5009152;28;20128;-73
2022/12/14 04:38:05;;;;;;;21.88;10.77;;;-4.10;88.90;;;;;;5003134;28;20371;-73
2022/12/14 04:40:45;;;;;;;23.15;11.52;;;-4.10;88.60;;;;;;5015178;28;20029;-73
2022/12/14 04:43:16;;;;;;;24.35;10.60;;;-4.10;88.80;;;;;;5014152;28;20029;-73
2022/12/14 04:45:52;;;;;;;25.80;11.68;;;-4.10;89.10;;;;;;5012565;28;20067;-73
2022/12/14 04:48:31;;;;;;;21.77;9.23;;;-4.20;89.30;;;;;;5007860;28;20072;-73
2022/12/14 04:51:18;;;;;;;23.20;9.55;;;-4.10;89.30;;;;;;5010584;28;20038;-73
2022/12/14 04:53:49;;;;;;;23.08;10.68;;;-4.10;89.50;;;;;;5010128;28;20434;-73
2022/12/14 04:56:52;;;;;;;24.70;11.05;;;-4.20;89.10;;;;;;5034777;28;20038;-73
2022/12/14 04:59:18;;;;;;;22.27;10.40;;;-4.10;89.40;;;;;;5015103;28;20399;-73
2022/12/14 05:01:50;;;;;;;27.35;11.07;;;-4.10;89.10;;;;;;5012849;28;20048;-73
2022/12/14 05:04:33;;;;;;;25.35;10.70;;;-4.10;89.10;;;;;;5012861;28;20397;-73
2022/12/14 05:07:17;;;;;;;21.38;9.63;;;-4.10;89.00;;;;;;5006309;28;20121;-73
2022/12/14 05:09:58;;;;;;;26.33;12.20;;;-4.10;89.10;;;;;;5012200;28;20034;-73
2022/12/14 05:12:47;;;;;;;25.70;11.43;;;-4.10;89.20;;;;;;5016803;28;20681;-73
2022/12/14 05:15:17;;;;;;;33.13;14.38;;;-4.10;89.20;;;;;;5005407;28;20061;-74
2022/12/14 05:17:43;;;;;;;29.38;13.05;;;-4.10;88.80;;;;;;5011975;28;20098;-73
2022/12/14 05:20:21;;;;;;;26.58;11.65;;;-4.10;89.00;;;;;;5012449;28;20037;-73
2022/12/14 05:22:48;;;;;;;24.83;10.95;;;-4.10;89.20;;;;;;5012412;28;20071;-74
2022/12/14 05:25:14;;;;;;;22.67;11.05;;;-4.20;89.00;;;;;;5007259;28;20060;-74
2022/12/14 05:27:40;;;;;;;28.90;11.05;;;-4.20;88.90;;;;;;5008935;28;20469;-73
2022/12/14 05:30:07;;;;;;;25.45;10.95;;;-4.20;88.80;;;;;;5011083;28;20083;-73
2022/12/14 05:32:33;;;;;;;22.33;10.40;;;-4.20;88.50;;;;;;5005955;28;20045;-73
2022/12/14 05:34:59;;;;;;;26.65;11.13;;;-4.20;88.20;;;;;;5013441;28;20042;-73
2022/12/14 05:37:25;;;;;;;21.48;11.00;;;-4.20;88.20;;;;;;5012671;28;20545;-73
2022/12/14 05:39:51;;;;;;;27.15;11.15;;;-4.20;87.50;;;;;;5010984;28;20042;-73
2022/12/14 05:42:16;;;;;;;22.95;11.50;;;-4.20;87.30;;;;;;5012674;28;20033;-73
2022/12/14 05:44:42;;;;;;;29.13;11.55;;;-4.20;87.70;;;;;;5005767;28;20033;-73
2022/12/14 05:47:08;;;;;;;27.73;12.13;;;-4.30;88.10;;;;;;5007035;28;20083;-73
2022/12/14 05:49:34;;;;;;;26.98;12.13;;;-4.30;88.30;;;;;;5011394;28;20070;-73
2022/12/14 05:51:59;;;;;;;27.95;12.20;;;-4.30;88.30;;;;;;5007447;28;20050;-74
2022/12/14 05:54:25;;;;;;;25.92;12.20;;;-4.30;88.10;;;;;;5014442;28;20029;-73
2022/12/14 05:56:51;;;;;;;32.60;13.32;;;-4.30;87.80;;;;;;5015306;28;20396;-73
2022/12/14 05:59:17;;;;;;;27.38;12.90;;;-4.40;88.20;;;;;;5016364;28;20052;-73
2022/12/14 06:01:44;;;;;;;27.98;12.55;;;-4.30;88.40;;;;;;5014667;28;20485;-73
2022/12/14 06:04:12;;;;;;;32.88;13.32;;;-4.30;87.70;;;;;;5009468;28;20409;-73
2022/12/14 06:06:37;;;;;;;28.88;11.98;;;-4.30;88.10;;;;;;5012695;28;20251;-73
2022/12/14 06:09:14;;;;;;;31.23;13.15;;;-4.30;88.60;;;;;;5012987;28;20042;-73
2022/12/14 06:11:40;;;;;;;25.40;12.07;;;-4.30;88.00;;;;;;5006904;28;20486;-73
2022/12/14 06:14:08;;;;;;;21.33;10.98;;;-4.40;88.00;;;;;;5012147;28;20042;-73
2022/12/14 06:16:34;;;;;;;26.77;11.98;;;-4.30;87.40;;;;;;5011420;28;20069;-73
2022/12/14 06:19:03;;;;;;;29.65;13.30;;;-4.40;87.60;;;;;;5012402;28;20026;-73
2022/12/14 06:21:34;;;;;;;30.67;11.82;;;-4.40;87.80;;;;;;5015114;28;20025;-74
2022/12/14 06:24:01;;;;;;;25.23;12.40;;;-4.40;87.90;;;;;;5011582;28;20499;-73
2022/12/14 06:26:29;;;;;;;25.92;11.63;;;-4.40;88.40;;;;;;5013397;28;20087;-74
2022/12/14 06:28:56;;;;;;;28.02;12.45;;;-4.40;87.80;;;;;;5009709;28;20038;-73
2022/12/14 06:31:25;;;;;;;25.65;11.20;;;-4.40;87.70;;;;;;5009601;28;20055;-73
2022/12/14 06:33:52;;;;;;;27.40;11.63;;;-4.40;87.90;;;;;;5011449;28;20045;-73
2022/12/14 06:36:20;;;;;;;32.03;13.00;;;-4.40;87.60;;;;;;5011134;28;20068;-74
2022/12/14 06:38:45;;;;;;;35.60;15.15;;;-4.40;87.40;;;;;;5011350;28;20032;-74
2022/12/14 06:41:11;;;;;;;35.88;15.40;;;-4.40;87.20;;;;;;5013409;28;20025;-73
2022/12/14 06:43:37;;;;;;;33.72;13.88;;;-4.40;87.00;;;;;;5010339;28;20037;-73
2022/12/14 06:46:08;;;;;;;29.40;13.52;;;-4.40;86.90;;;;;;5011045;28;20045;-73
2022/12/14 06:48:34;;;;;;;32.70;12.55;;;-4.50;86.80;;;;;;5015554;28;20154;-73
2022/12/14 06:51:01;;;;;;;27.88;11.65;;;-4.50;87.00;;;;;;5013248;28;20524;-73
2022/12/14 06:53:27;;;;;;;28.38;12.10;;;-4.60;87.20;;;;;;5007737;28;20069;-73
2022/12/14 06:55:52;;;;;;;29.83;12.82;;;-4.50;87.60;;;;;;5010679;28;20490;-73
2022/12/14 06:58:18;;;;;;;29.02;12.50;;;-4.50;87.10;;;;;;5042685;28;20160;-73
2022/12/14 07:00:44;;;;;;;29.63;11.60;;;-4.60;86.80;;;;;;5008660;28;20053;-73
2022/12/14 07:03:09;;;;;;;35.17;13.77;;;-4.60;87.20;;;;;;5011767;28;20852;-74
2022/12/14 07:05:36;;;;;;;34.40;12.30;;;-4.60;86.90;;;;;;5008589;28;20042;-73
2022/12/14 07:08:03;;;;;;;25.17;11.43;;;-4.60;86.50;;;;;;5007972;28;20506;-73
2022/12/14 07:10:28;;;;;;;29.08;12.45;;;-4.70;86.90;;;;;;5008930;28;20034;-73
2022/12/14 07:12:54;;;;;;;34.95;13.85;;;-4.70;87.00;;;;;;5010989;28;20096;-73
2022/12/14 07:15:20;;;;;;;28.27;11.77;;;-4.70;87.20;;;;;;5044161;28;20104;-73
2022/12/14 07:17:46;;;;;;;26.88;11.60;;;-4.70;87.20;;;;;;5007253;28;20037;-73
2022/12/14 07:20:11;;;;;;;29.45;12.23;;;-4.70;87.10;;;;;;5009407;28;20030;-73
2022/12/14 07:22:37;;;;;;;29.17;11.55;;;-4.70;87.50;;;;;;5005473;28;20034;-73
2022/12/14 07:25:03;;;;;;;25.05;12.07;;;-4.70;87.60;;;;;;5008743;28;20033;-73
2022/12/14 07:27:29;;;;;;;29.23;11.55;;;-4.80;88.10;;;;;;5011875;28;20124;-73
2022/12/14 07:29:55;;;;;;;27.30;11.63;;;-4.70;88.10;;;;;;5005239;28;20040;-73
2022/12/14 07:32:21;;;;;;;29.52;12.93;;;-4.70;88.20;;;;;;5043825;28;20040;-73
2022/12/14 07:34:47;;;;;;;23.20;11.02;;;-4.70;88.40;;;;;;5007956;28;20457;-73
2022/12/14 07:37:13;;;;;;;30.95;12.27;;;-4.70;88.50;;;;;;5010826;28;20112;-73
2022/12/14 07:39:39;;;;;;;23.42;10.90;;;-4.70;88.70;;;;;;5006566;28;20120;-73
2022/12/14 07:42:05;;;;;;;28.23;12.75;;;-4.70;88.70;;;;;;5009664;28;20040;-73
2022/12/14 07:44:31;;;;;;;25.73;11.48;;;-4.60;88.80;;;;;;5006759;28;20029;-73
2022/12/14 07:46:56;;;;;;;36.65;13.48;;;-4.60;88.60;;;;;;5013281;28;21113;-73
2022/12/14 07:49:22;;;;;;;30.23;11.65;;;-4.60;88.50;;;;;;5013177;28;20599;-73
2022/12/14 07:51:48;;;;;;;25.25;10.77;;;-4.50;88.40;;;;;;5008239;28;20049;-73
2022/12/14 07:54:14;;;;;;;29.17;12.70;;;-4.50;88.10;;;;;;5009423;28;20144;-73
2022/12/14 07:56:42;;;;;;;31.42;12.45;;;-4.60;88.30;;;;;;5010024;28;20523;-72
2022/12/14 07:59:13;;;;;;;35.67;12.50;;;-4.50;88.50;;;;;;5005029;28;20083;-73
2022/12/14 08:01:41;;;;;;;29.00;12.45;;;-4.40;88.20;;;;;;5006076;28;20212;-73
2022/12/14 08:04:12;;;;;;;27.60;11.93;;;-4.40;88.80;;;;;;5011222;28;20116;-73
2022/12/14 08:06:39;;;;;;;28.15;12.43;;;-4.40;88.90;;;;;;5008718;28;20160;-70
2022/12/14 08:09:06;;;;;;;30.55;12.18;;;-4.40;88.70;;;;;;5007703;28;20474;-72
2022/12/14 08:11:32;;;;;;;26.75;10.88;;;-4.30;88.60;;;;;;5007604;28;20497;-72
2022/12/14 08:14:04;;;;;;;21.90;10.82;;;-4.20;88.60;;;;;;5014047;28;20041;-71
2022/12/14 08:16:32;;;;;;;24.52;10.93;;;-4.10;88.80;;;;;;5013346;28;20033;-72
2022/12/14 08:18:59;;;;;;;27.90;11.88;;;-4.10;88.10;;;;;;5006683;28;20038;-72
2022/12/14 08:21:26;;;;;;;28.30;12.80;;;-3.90;88.00;;;;;;5010892;28;20208;-72
2022/12/14 08:23:53;;;;;;;26.30;11.38;;;-3.40;87.20;;;;;;5005192;28;20104;-73
2022/12/14 08:26:20;;;;;;;22.95;10.77;;;-2.70;84.80;;;;;;5006799;28;20029;-72
2022/12/14 08:28:47;;;;;;;24.20;11.65;;;-2.20;81.60;;;;;;5006861;28;20512;-69
2022/12/14 08:31:19;;;;;;;29.25;12.60;;;-2.00;80.70;;;;;;5009474;28;20056;-71
2022/12/14 08:33:46;;;;;;;28.17;13.40;;;-2.10;79.50;;;;;;5009377;28;20040;-70
2022/12/14 08:36:15;;;;;;;29.98;12.95;;;-2.30;79.60;;;;;;5005823;28;20034;-69
2022/12/14 08:38:41;;;;;;;25.98;11.57;;;-2.50;80.40;;;;;;5005536;28;20034;-70
2022/12/14 08:41:13;;;;;;;22.38;10.98;;;-2.60;81.00;;;;;;5009305;28;20417;-69
2022/12/14 08:43:40;;;;;;;21.20;10.35;;;-2.90;82.00;;;;;;5011925;28;20041;-71
2022/12/14 08:46:07;;;;;;;20.80;10.15;;;-3.00;83.10;;;;;;5012374;28;20472;-70
2022/12/14 08:48:33;;;;;;;18.52;9.63;;;-3.00;84.10;;;;;;5008366;28;20113;-70
2022/12/14 08:51:05;;;;;;;24.23;10.52;;;-3.00;84.40;;;;;;5013392;28;20039;-70
2022/12/14 08:53:30;;;;;;;25.80;11.85;;;-2.90;83.70;;;;;;5010056;28;20838;-70
2022/12/14 08:55:57;;;;;;;23.17;11.85;;;-2.90;83.70;;;;;;5013472;28;20034;-70
2022/12/14 08:58:23;;;;;;;24.95;10.38;;;-2.80;83.90;;;;;;5010364;28;20088;-69
2022/12/14 09:00:49;;;;;;;20.85;10.32;;;-2.60;83.30;;;;;;5003257;28;20034;-70
2022/12/14 09:03:15;;;;;;;24.70;10.18;;;-2.40;83.00;;;;;;5000124;28;20530;-70
2022/12/14 09:05:41;;;;;;;22.65;11.65;;;-2.20;84.20;;;;;;5008781;28;20134;-69
2022/12/14 09:08:08;;;;;;;25.02;10.98;;;-1.70;81.50;;;;;;5009492;28;20515;-69
2022/12/14 09:10:33;;;;;;;23.63;10.50;;;-1.20;79.80;;;;;;5007268;28;20527;-69
2022/12/14 09:12:59;;;;;;;24.23;11.30;;;-0.90;76.60;;;;;;5008754;28;20109;-69
2022/12/14 09:15:25;;;;;;;25.75;10.07;;;-0.80;75.70;;;;;;5012264;28;20087;-69
2022/12/14 09:17:51;;;;;;;21.60;10.05;;;-1.00;75.60;;;;;;4979887;28;20063;-69
2022/12/14 09:20:17;;;;;;;18.90;9.63;;;-1.20;75.40;;;;;;4996539;28;20100;-69
2022/12/14 09:22:43;;;;;;;17.55;9.52;;;-1.40;76.70;;;;;;4984537;28;20600;-71
2022/12/14 09:25:10;;;;;;;22.95;10.35;;;-1.50;77.20;;;;;;4987879;28;20099;-70
2022/12/14 09:27:35;;;;;;;23.40;10.90;;;-1.40;76.80;;;;;;4991853;28;20038;-68
2022/12/14 09:30:02;;;;;;;24.27;9.88;;;-1.40;77.00;;;;;;4990811;28;20046;-69
2022/12/14 09:32:28;;;;;;;22.42;10.20;;;-1.10;77.10;;;;;;4989973;28;20034;-67
2022/12/14 09:34:54;;;;;;;22.92;11.48;;;-0.80;75.60;;;;;;4992507;28;20042;-69
2022/12/14 09:37:20;;;;;;;22.15;10.77;;;-0.60;74.40;;;;;;4995753;28;20025;-69
2022/12/14 09:39:46;;;;;;;27.90;11.05;;;-0.10;73.60;;;;;;4988707;28;20030;-69
2022/12/14 09:42:20;;;;;;;23.50;11.38;;;0.30;72.10;;;;;;4991281;28;20423;-69
2022/12/14 09:45:01;;;;;;;19.55;9.52;;;0.70;69.80;;;;;;4992350;28;20037;-70
2022/12/14 09:48:02;;;;;;;19.42;9.43;;;0.80;68.50;;;;;;5007830;28;21886;-71
2022/12/14 09:50:29;;;;;;;22.88;10.15;;;0.70;68.80;;;;;;4985283;28;20038;-72
2022/12/14 09:53:21;;;;;;;22.25;10.50;;;0.60;69.30;;;;;;4993063;28;20038;-72
2022/12/14 09:55:50;;;;;;;20.52;9.48;;;0.40;69.40;;;;;;4993296;28;20050;-71
2022/12/14 09:58:21;;;;;;;20.50;9.85;;;0.10;71.20;;;;;;5000716;28;20034;-71
2022/12/14 10:01:00;;;;;;;20.05;10.15;;;0.00;72.20;;;;;;4996800;28;20419;-70
2022/12/14 10:04:24;;;;;;;21.35;10.60;;;0.20;72.10;;;;;;4989371;28;20030;-69
2022/12/14 10:06:59;;;;;;;23.73;10.30;;;0.60;71.30;;;;;;4983413;28;20046;-71
2022/12/14 10:09:25;;;;;;;21.83;9.50;;;0.60;71.10;;;;;;4992929;28;20375;-70
2022/12/14 10:12:23;;;;;;;25.02;11.38;;;0.50;70.80;;;;;;4987269;28;20046;-69
2022/12/14 10:15:02;;;;;;;19.90;9.63;;;0.40;71.50;;;;;;4989104;28;20039;-70
2022/12/14 10:17:59;;;;;;;20.83;10.85;;;0.40;71.60;;;;;;4986465;28;20025;-70
2022/12/14 10:20:57;;;;;;;22.70;10.38;;;0.40;72.30;;;;;;4993378;28;20034;-72
2022/12/14 10:23:25;;;;;;;20.25;9.95;;;0.20;73.10;;;;;;4982736;28;20039;-72
2022/12/14 10:25:55;;;;;;;21.92;10.50;;;0.00;73.50;;;;;;4996650;28;20038;-70
2022/12/14 10:28:37;;;;;;;23.70;11.00;;;-0.10;74.40;;;;;;4990485;28;20054;-70
2022/12/14 10:31:07;;;;;;;24.02;9.73;;;-0.20;75.20;;;;;;4989957;28;20042;-70
2022/12/14 10:33:33;;;;;;;24.92;10.55;;;-0.30;76.30;;;;;;4995611;28;20145;-70
2022/12/14 10:36:27;;;;;;;23.33;10.38;;;-0.20;76.00;;;;;;4991413;28;20034;-71
2022/12/14 10:39:18;;;;;;;20.70;10.90;;;-0.10;75.50;;;;;;4989933;28;20034;-71
2022/12/14 10:41:56;;;;;;;23.90;11.38;;;-0.10;74.70;;;;;;4991754;28;20034;-71
2022/12/14 10:44:44;;;;;;;22.33;10.75;;;-0.30;75.50;;;;;;4990318;28;20046;-71
2022/12/14 10:47:39;;;;;;;21.27;10.15;;;-0.30;77.10;;;;;;4988077;28;20037;-72
2022/12/14 10:50:35;;;;;;;19.60;10.23;;;-0.30;78.00;;;;;;4989962;28;20728;-72
2022/12/14 10:53:04;;;;;;;20.65;10.27;;;-0.20;77.70;;;;;;4991637;28;20480;-72
2022/12/14 10:55:35;;;;;;;20.35;9.82;;;0.00;77.40;;;;;;4989745;28;20041;-71
2022/12/14 10:58:01;;;;;;;25.10;10.98;;;0.10;76.60;;;;;;4999153;28;20756;-71
2022/12/14 11:00:27;;;;;;;22.40;10.70;;;0.00;77.10;;;;;;4992938;28;20562;-73
2022/12/14 11:02:55;;;;;;;24.50;11.93;;;0.00;77.40;;;;;;4990761;28;20041;-73
2022/12/14 11:05:34;;;;;;;22.00;10.85;;;0.00;77.70;;;;;;4988639;28;20388;-74
2022/12/14 11:08:01;;;;;;;21.88;10.18;;;0.10;77.00;;;;;;4991693;28;20060;-74
2022/12/14 11:10:34;;;;;;;17.90;9.63;;;0.00;77.20;;;;;;4988336;28;20034;-74
2022/12/14 11:13:02;;;;;;;20.55;10.32;;;-0.10;78.20;;;;;;4992958;28;20046;-71
2022/12/14 11:15:33;;;;;;;20.60;9.65;;;-0.10;78.50;;;;;;4985570;28;20107;-72
2022/12/14 11:18:11;;;;;;;23.48;9.93;;;-0.20;79.30;;;;;;4989315;28;20030;-73
2022/12/14 11:20:47;;;;;;;18.60;10.10;;;-0.20;80.20;;;;;;5021156;28;20513;-71
2022/12/14 11:23:19;;;;;;;17.88;9.98;;;-0.30;79.90;;;;;;4993100;28;20558;-71
2022/12/14 11:25:52;;;;;;;21.20;10.20;;;-0.30;80.60;;;;;;4990169;28;20057;-70
2022/12/14 11:28:29;;;;;;;22.80;10.27;;;-0.20;81.20;;;;;;4988050;28;20069;-69
2022/12/14 11:31:07;;;;;;;19.02;10.00;;;-0.20;81.30;;;;;;4988509;28;20073;-69
2022/12/14 11:33:46;;;;;;;19.10;9.13;;;-0.10;80.80;;;;;;4987679;28;20058;-69
2022/12/14 11:36:37;;;;;;;18.73;9.65;;;-0.10;80.80;;;;;;4989275;28;20045;-69
2022/12/14 11:39:02;;;;;;;20.60;9.88;;;-0.10;81.00;;;;;;5012993;28;20042;-69
2022/12/14 11:41:35;;;;;;;22.23;10.73;;;-0.20;81.20;;;;;;4990571;28;20030;-69
2022/12/14 11:44:04;;;;;;;21.27;9.82;;;-0.20;81.30;;;;;;4987164;28;20034;-71
2022/12/14 11:46:41;;;;;;;19.40;9.10;;;-0.20;81.40;;;;;;4991819;28;20624;-74
2022/12/14 11:49:26;;;;;;;19.17;10.00;;;-0.30;81.10;;;;;;4987774;28;20088;-68
2022/12/14 11:51:57;;;;;;;20.38;9.55;;;-0.20;81.40;;;;;;4987783;28;20514;-72
2022/12/14 11:54:23;;;;;;;24.63;10.90;;;-0.40;82.00;;;;;;4988098;28;20038;-72
2022/12/14 11:57:02;;;;;;;20.15;10.15;;;-0.30;81.30;;;;;;4991360;28;20796;-70
2022/12/14 11:59:37;;;;;;;21.50;10.55;;;-0.40;82.20;;;;;;4991428;28;20117;-69
2022/12/14 12:02:20;;;;;;;20.23;9.20;;;-0.40;82.30;;;;;;4987413;28;20577;-71
2022/12/14 12:04:52;;;;;;;21.90;10.57;;;-0.40;81.60;;;;;;4992365;28;20026;-71
2022/12/14 12:07:33;;;;;;;19.88;10.70;;;-0.40;82.60;;;;;;4986594;28;20057;-71
2022/12/14 12:10:14;;;;;;;23.58;10.82;;;-0.40;82.50;;;;;;4990271;28;20752;-70
2022/12/14 12:13:16;;;;;;;18.85;9.10;;;-0.30;82.50;;;;;;4992896;28;20030;-72
2022/12/14 12:15:50;;;;;;;19.95;9.45;;;-0.30;82.40;;;;;;4992550;28;20580;-72
2022/12/14 12:18:30;;;;;;;19.98;10.13;;;-0.30;82.60;;;;;;4988245;28;20048;-72
2022/12/14 12:21:20;;;;;;;21.58;10.45;;;-0.30;82.60;;;;;;4993903;28;20093;-72
2022/12/14 12:24:01;;;;;;;24.65;10.52;;;-0.30;82.60;;;;;;4988242;28;20117;-72
2022/12/14 12:26:43;;;;;;;19.25;9.73;;;-0.30;82.80;;;;;;4988290;28;20033;-72
2022/12/14 12:29:16;;;;;;;18.90;9.68;;;-0.30;82.60;;;;;;4989305;28;20045;-72
2022/12/14 12:31:54;;;;;;;21.88;10.45;;;-0.30;82.30;;;;;;4997201;28;20096;-73
2022/12/14 12:34:30;;;;;;;21.83;10.23;;;-0.40;82.70;;;;;;4991837;28;20088;-72
2022/12/14 12:37:01;;;;;;;25.90;11.80;;;-0.40;82.70;;;;;;4984969;28;20706;-72
2022/12/14 12:39:29;;;;;;;22.80;10.55;;;-0.40;83.40;;;;;;5020506;28;20422;-73
2022/12/14 12:42:16;;;;;;;19.90;9.40;;;-0.40;83.70;;;;;;4993933;28;20025;-73
2022/12/14 12:45:17;;;;;;;21.45;10.00;;;-0.40;83.60;;;;;;4988601;28;20026;-73
2022/12/14 12:48:00;;;;;;;19.05;10.43;;;-0.50;82.70;;;;;;4960839;28;20115;-71
2022/12/14 12:50:32;;;;;;;18.58;9.38;;;-0.50;83.20;;;;;;4998399;28;20050;-71
2022/12/14 12:53:04;;;;;;;18.58;9.25;;;-0.60;83.60;;;;;;4991406;28;20851;-72
2022/12/14 12:55:55;;;;;;;17.30;9.85;;;-0.60;83.50;;;;;;4987111;28;20026;-71
2022/12/14 12:58:28;;;;;;;20.15;9.57;;;-0.60;83.80;;;;;;4991591;28;20037;-71
2022/12/14 13:00:59;;;;;;;18.65;9.27;;;-0.60;83.70;;;;;;4986855;28;20037;-72
2022/12/14 13:03:45;;;;;;;24.98;9.02;;;-0.70;83.70;;;;;;4987906;28;20035;-68
2022/12/14 13:06:39;;;;;;;19.02;9.32;;;-0.70;83.90;;;;;;4987472;28;20081;-69
2022/12/14 13:09:32;;;;;;;18.48;9.43;;;-0.70;84.30;;;;;;4993138;28;20050;-69
2022/12/14 13:12:01;;;;;;;18.73;9.10;;;-0.80;84.20;;;;;;4972223;28;20617;-70